sensor_id;sensor_type;location;lat;lon;timestamp;P1;durP1;ratioP1;P2;durP2;ratioP2
6547;SDS011;3307;52.416;16.862;2023-04-22T00:00:02;6.28;;;5.68;;
6547;SDS011;3307;52.416;16.862;2023-04-22T00:02:29;8.98;;;6.43;;
6547;SDS011;3307;52.416;16.862;2023-04-22T00:04:54;8.93;;;5.70;;
6547;SDS011;3307;52.416;16.862;2023-04-22T00:07:21;6.78;;;6.05;;
6547;SDS011;3307;52.416;16.862;2023-04-22T00:09:46;6.73;;;6.07;;
6547;SDS011;3307;52.416;16.862;2023-04-22T00:12:12;7.00;;;6.13;;
6547;SDS011;3307;52.416;16.862;2023-04-22T00:14:37;6.77;;;5.87;;
6547;SDS011;3307;52.416;16.862;2023-04-22T00:17:03;6.63;;;5.50;;
6547;SDS011;3307;52.416;16.862;2023-04-22T00:19:28;6.93;;;6.13;;
6547;SDS011;3307;52.416;16.862;2023-04-22T00:21:54;7.80;;;6.30;;
6547;SDS011;3307;52.416;16.862;2023-04-22T00:24:20;6.70;;;5.68;;
6547;SDS011;3307;52.416;16.862;2023-04-22T00:26:45;10.93;;;6.63;;
6547;SDS011;3307;52.416;16.862;2023-04-22T00:29:10;7.87;;;6.03;;
6547;SDS011;3307;52.416;16.862;2023-04-22T00:31:36;8.57;;;6.97;;
6547;SDS011;3307;52.416;16.862;2023-04-22T00:34:01;7.17;;;6.47;;
6547;SDS011;3307;52.416;16.862;2023-04-22T00:36:27;10.57;;;7.17;;
6547;SDS011;3307;52.416;16.862;2023-04-22T00:38:52;9.90;;;6.20;;
6547;SDS011;3307;52.416;16.862;2023-04-22T00:41:18;10.17;;;6.80;;
6547;SDS011;3307;52.416;16.862;2023-04-22T00:43:44;9.30;;;7.30;;
6547;SDS011;3307;52.416;16.862;2023-04-22T00:46:10;8.30;;;6.78;;
6547;SDS011;3307;52.416;16.862;2023-04-22T00:48:38;9.23;;;7.03;;
6547;SDS011;3307;52.416;16.862;2023-04-22T00:51:04;7.80;;;7.00;;
6547;SDS011;3307;52.416;16.862;2023-04-22T00:53:30;7.77;;;6.60;;
6547;SDS011;3307;52.416;16.862;2023-04-22T00:55:56;7.07;;;6.40;;
6547;SDS011;3307;52.416;16.862;2023-04-22T00:58:21;7.77;;;6.37;;
6547;SDS011;3307;52.416;16.862;2023-04-22T01:00:47;7.47;;;6.43;;
6547;SDS011;3307;52.416;16.862;2023-04-22T01:03:13;7.03;;;6.33;;
6547;SDS011;3307;52.416;16.862;2023-04-22T01:05:40;7.18;;;6.47;;
6547;SDS011;3307;52.416;16.862;2023-04-22T01:08:05;7.90;;;6.97;;
6547;SDS011;3307;52.416;16.862;2023-04-22T01:10:31;8.33;;;6.80;;
6547;SDS011;3307;52.416;16.862;2023-04-22T01:12:56;7.73;;;6.47;;
6547;SDS011;3307;52.416;16.862;2023-04-22T01:15:22;8.53;;;6.60;;
6547;SDS011;3307;52.416;16.862;2023-04-22T01:17:47;7.10;;;6.20;;
6547;SDS011;3307;52.416;16.862;2023-04-22T01:20:13;7.03;;;5.73;;
6547;SDS011;3307;52.416;16.862;2023-04-22T01:22:39;9.13;;;6.90;;
6547;SDS011;3307;52.416;16.862;2023-04-22T01:25:06;6.63;;;6.03;;
6547;SDS011;3307;52.416;16.862;2023-04-22T01:27:33;7.82;;;6.55;;
6547;SDS011;3307;52.416;16.862;2023-04-22T01:29:59;10.40;;;6.78;;
6547;SDS011;3307;52.416;16.862;2023-04-22T01:32:24;9.50;;;6.47;;
6547;SDS011;3307;52.416;16.862;2023-04-22T01:34:50;7.97;;;7.07;;
6547;SDS011;3307;52.416;16.862;2023-04-22T01:37:16;9.80;;;6.60;;
6547;SDS011;3307;52.416;16.862;2023-04-22T01:39:42;8.32;;;6.75;;
6547;SDS011;3307;52.416;16.862;2023-04-22T01:42:08;7.63;;;6.83;;
6547;SDS011;3307;52.416;16.862;2023-04-22T01:44:33;8.20;;;6.13;;
6547;SDS011;3307;52.416;16.862;2023-04-22T01:46:59;10.13;;;7.23;;
6547;SDS011;3307;52.416;16.862;2023-04-22T01:49:24;8.63;;;5.93;;
6547;SDS011;3307;52.416;16.862;2023-04-22T01:51:49;7.43;;;6.77;;
6547;SDS011;3307;52.416;16.862;2023-04-22T01:54:15;10.03;;;6.70;;
6547;SDS011;3307;52.416;16.862;2023-04-22T01:56:40;9.02;;;6.63;;
6547;SDS011;3307;52.416;16.862;2023-04-22T01:59:08;7.50;;;6.70;;
6547;SDS011;3307;52.416;16.862;2023-04-22T02:01:33;8.20;;;6.47;;
6547;SDS011;3307;52.416;16.862;2023-04-22T02:03:59;9.30;;;7.07;;
6547;SDS011;3307;52.416;16.862;2023-04-22T02:06:25;7.93;;;7.10;;
6547;SDS011;3307;52.416;16.862;2023-04-22T02:08:51;7.65;;;6.47;;
6547;SDS011;3307;52.416;16.862;2023-04-22T02:11:16;9.33;;;7.20;;
6547;SDS011;3307;52.416;16.862;2023-04-22T02:13:42;9.27;;;7.55;;
6547;SDS011;3307;52.416;16.862;2023-04-22T02:16:07;8.90;;;7.43;;
6547;SDS011;3307;52.416;16.862;2023-04-22T02:18:33;8.43;;;6.67;;
6547;SDS011;3307;52.416;16.862;2023-04-22T02:20:59;8.27;;;7.00;;
6547;SDS011;3307;52.416;16.862;2023-04-22T02:23:24;9.30;;;7.50;;
6547;SDS011;3307;52.416;16.862;2023-04-22T02:25:50;7.43;;;6.73;;
6547;SDS011;3307;52.416;16.862;2023-04-22T02:28:16;8.35;;;7.47;;
6547;SDS011;3307;52.416;16.862;2023-04-22T02:30:44;9.82;;;7.55;;
6547;SDS011;3307;52.416;16.862;2023-04-22T02:33:09;8.35;;;7.55;;
6547;SDS011;3307;52.416;16.862;2023-04-22T02:35:35;8.43;;;7.53;;
6547;SDS011;3307;52.416;16.862;2023-04-22T02:38:00;8.53;;;7.70;;
6547;SDS011;3307;52.416;16.862;2023-04-22T02:40:26;12.90;;;8.40;;
6547;SDS011;3307;52.416;16.862;2023-04-22T02:42:51;10.10;;;7.70;;
6547;SDS011;3307;52.416;16.862;2023-04-22T02:45:16;9.33;;;7.30;;
6547;SDS011;3307;52.416;16.862;2023-04-22T02:47:42;12.93;;;8.77;;
6547;SDS011;3307;52.416;16.862;2023-04-22T02:50:07;11.03;;;7.67;;
6547;SDS011;3307;52.416;16.862;2023-04-22T02:52:33;11.83;;;8.03;;
6547;SDS011;3307;52.416;16.862;2023-04-22T02:54:59;11.97;;;8.23;;
6547;SDS011;3307;52.416;16.862;2023-04-22T02:57:24;9.20;;;8.00;;
6547;SDS011;3307;52.416;16.862;2023-04-22T02:59:50;10.43;;;7.93;;
6547;SDS011;3307;52.416;16.862;2023-04-22T03:02:15;9.57;;;7.87;;
6547;SDS011;3307;52.416;16.862;2023-04-22T03:04:41;11.70;;;8.10;;
6547;SDS011;3307;52.416;16.862;2023-04-22T03:07:06;11.90;;;8.30;;
6547;SDS011;3307;52.416;16.862;2023-04-22T03:09:32;9.20;;;8.20;;
6547;SDS011;3307;52.416;16.862;2023-04-22T03:11:57;12.40;;;8.07;;
6547;SDS011;3307;52.416;16.862;2023-04-22T03:14:22;9.07;;;8.17;;
6547;SDS011;3307;52.416;16.862;2023-04-22T03:16:48;9.43;;;8.53;;
6547;SDS011;3307;52.416;16.862;2023-04-22T03:19:13;11.40;;;7.67;;
6547;SDS011;3307;52.416;16.862;2023-04-22T03:21:40;15.90;;;9.50;;
6547;SDS011;3307;52.416;16.862;2023-04-22T03:24:05;10.80;;;8.70;;
6547;SDS011;3307;52.416;16.862;2023-04-22T03:26:31;10.20;;;9.10;;
6547;SDS011;3307;52.416;16.862;2023-04-22T03:28:56;12.50;;;8.90;;
6547;SDS011;3307;52.416;16.862;2023-04-22T03:31:22;11.37;;;8.87;;
6547;SDS011;3307;52.416;16.862;2023-04-22T03:33:47;9.63;;;8.50;;
6547;SDS011;3307;52.416;16.862;2023-04-22T03:36:13;10.37;;;9.30;;
6547;SDS011;3307;52.416;16.862;2023-04-22T03:38:38;10.93;;;9.67;;
6547;SDS011;3307;52.416;16.862;2023-04-22T03:41:04;12.20;;;9.40;;
6547;SDS011;3307;52.416;16.862;2023-04-22T03:43:29;11.43;;;8.90;;
6547;SDS011;3307;52.416;16.862;2023-04-22T03:45:55;10.60;;;8.70;;
6547;SDS011;3307;52.416;16.862;2023-04-22T03:48:20;10.80;;;9.03;;
6547;SDS011;3307;52.416;16.862;2023-04-22T03:50:45;11.20;;;9.60;;
6547;SDS011;3307;52.416;16.862;2023-04-22T03:53:11;10.43;;;9.43;;
6547;SDS011;3307;52.416;16.862;2023-04-22T03:55:36;11.77;;;10.50;;
6547;SDS011;3307;52.416;16.862;2023-04-22T03:58:02;13.70;;;9.87;;
6547;SDS011;3307;52.416;16.862;2023-04-22T04:00:27;10.80;;;9.23;;
6547;SDS011;3307;52.416;16.862;2023-04-22T04:02:53;10.83;;;9.10;;
6547;SDS011;3307;52.416;16.862;2023-04-22T04:05:18;9.93;;;8.57;;
6547;SDS011;3307;52.416;16.862;2023-04-22T04:07:43;17.00;;;9.87;;
6547;SDS011;3307;52.416;16.862;2023-04-22T04:10:09;12.20;;;10.43;;
6547;SDS011;3307;52.416;16.862;2023-04-22T04:12:35;11.30;;;9.97;;
6547;SDS011;3307;52.416;16.862;2023-04-22T04:15:00;10.67;;;9.23;;
6547;SDS011;3307;52.416;16.862;2023-04-22T04:17:26;14.00;;;10.80;;
6547;SDS011;3307;52.416;16.862;2023-04-22T04:19:53;14.60;;;10.05;;
6547;SDS011;3307;52.416;16.862;2023-04-22T04:22:18;14.30;;;10.10;;
6547;SDS011;3307;52.416;16.862;2023-04-22T04:24:44;16.17;;;10.20;;
6547;SDS011;3307;52.416;16.862;2023-04-22T04:27:11;16.25;;;11.30;;
6547;SDS011;3307;52.416;16.862;2023-04-22T04:29:37;14.40;;;10.27;;
6547;SDS011;3307;52.416;16.862;2023-04-22T04:32:03;14.02;;;10.85;;
6547;SDS011;3307;52.416;16.862;2023-04-22T04:34:29;14.20;;;11.80;;
6547;SDS011;3307;52.416;16.862;2023-04-22T04:36:56;14.75;;;10.77;;
6547;SDS011;3307;52.416;16.862;2023-04-22T04:39:22;12.03;;;10.27;;
6547;SDS011;3307;52.416;16.862;2023-04-22T04:41:47;16.88;;;10.48;;
6547;SDS011;3307;52.416;16.862;2023-04-22T04:44:13;11.07;;;8.63;;
6547;SDS011;3307;52.416;16.862;2023-04-22T04:46:38;12.93;;;9.43;;
6547;SDS011;3307;52.416;16.862;2023-04-22T04:49:05;15.03;;;10.20;;
6547;SDS011;3307;52.416;16.862;2023-04-22T04:51:31;12.00;;;10.20;;
6547;SDS011;3307;52.416;16.862;2023-04-22T04:53:57;11.10;;;9.90;;
6547;SDS011;3307;52.416;16.862;2023-04-22T04:56:22;11.03;;;9.80;;
6547;SDS011;3307;52.416;16.862;2023-04-22T04:58:48;14.10;;;9.60;;
6547;SDS011;3307;52.416;16.862;2023-04-22T05:01:13;11.37;;;10.27;;
6547;SDS011;3307;52.416;16.862;2023-04-22T05:03:39;11.10;;;10.00;;
6547;SDS011;3307;52.416;16.862;2023-04-22T05:06:05;11.20;;;9.87;;
6547;SDS011;3307;52.416;16.862;2023-04-22T05:08:31;12.25;;;9.90;;
6547;SDS011;3307;52.416;16.862;2023-04-22T05:10:56;13.93;;;10.70;;
6547;SDS011;3307;52.416;16.862;2023-04-22T05:13:21;11.67;;;9.70;;
6547;SDS011;3307;52.416;16.862;2023-04-22T05:15:47;13.70;;;9.70;;
6547;SDS011;3307;52.416;16.862;2023-04-22T05:18:12;10.10;;;9.10;;
6547;SDS011;3307;52.416;16.862;2023-04-22T05:20:38;11.70;;;10.07;;
6547;SDS011;3307;52.416;16.862;2023-04-22T05:23:03;12.47;;;9.20;;
6547;SDS011;3307;52.416;16.862;2023-04-22T05:25:29;12.10;;;10.77;;
6547;SDS011;3307;52.416;16.862;2023-04-22T05:27:54;16.03;;;10.17;;
6547;SDS011;3307;52.416;16.862;2023-04-22T05:30:20;11.93;;;10.73;;
6547;SDS011;3307;52.416;16.862;2023-04-22T05:32:45;11.00;;;9.90;;
6547;SDS011;3307;52.416;16.862;2023-04-22T05:35:11;14.77;;;10.83;;
6547;SDS011;3307;52.416;16.862;2023-04-22T05:37:37;14.10;;;10.87;;
6547;SDS011;3307;52.416;16.862;2023-04-22T05:40:03;13.15;;;10.45;;
6547;SDS011;3307;52.416;16.862;2023-04-22T05:42:28;11.35;;;9.85;;
6547;SDS011;3307;52.416;16.862;2023-04-22T05:44:54;14.13;;;11.70;;
6547;SDS011;3307;52.416;16.862;2023-04-22T05:47:19;12.97;;;10.70;;
6547;SDS011;3307;52.416;16.862;2023-04-22T05:49:45;22.73;;;11.17;;
6547;SDS011;3307;52.416;16.862;2023-04-22T05:52:10;11.57;;;10.30;;
6547;SDS011;3307;52.416;16.862;2023-04-22T05:54:36;13.10;;;10.13;;
6547;SDS011;3307;52.416;16.862;2023-04-22T05:57:01;12.73;;;11.07;;
6547;SDS011;3307;52.416;16.862;2023-04-22T05:59:27;15.30;;;11.40;;
6547;SDS011;3307;52.416;16.862;2023-04-22T06:01:52;15.80;;;10.73;;
6547;SDS011;3307;52.416;16.862;2023-04-22T06:04:18;15.27;;;12.40;;
6547;SDS011;3307;52.416;16.862;2023-04-22T06:06:43;12.43;;;10.30;;
6547;SDS011;3307;52.416;16.862;2023-04-22T06:09:08;14.73;;;12.53;;
6547;SDS011;3307;52.416;16.862;2023-04-22T06:11:34;13.60;;;11.10;;
6547;SDS011;3307;52.416;16.862;2023-04-22T06:13:59;13.33;;;11.43;;
6547;SDS011;3307;52.416;16.862;2023-04-22T06:16:25;14.20;;;11.70;;
6547;SDS011;3307;52.416;16.862;2023-04-22T06:18:51;15.80;;;12.10;;
6547;SDS011;3307;52.416;16.862;2023-04-22T06:21:16;14.73;;;11.30;;
6547;SDS011;3307;52.416;16.862;2023-04-22T06:23:42;14.33;;;12.07;;
6547;SDS011;3307;52.416;16.862;2023-04-22T06:26:07;18.13;;;11.63;;
6547;SDS011;3307;52.416;16.862;2023-04-22T06:28:33;14.03;;;11.60;;
6547;SDS011;3307;52.416;16.862;2023-04-22T06:30:58;15.07;;;11.47;;
6547;SDS011;3307;52.416;16.862;2023-04-22T06:33:23;13.40;;;11.90;;
6547;SDS011;3307;52.416;16.862;2023-04-22T06:35:49;15.30;;;12.20;;
6547;SDS011;3307;52.416;16.862;2023-04-22T06:38:14;13.87;;;11.83;;
6547;SDS011;3307;52.416;16.862;2023-04-22T06:40:40;13.83;;;11.23;;
6547;SDS011;3307;52.416;16.862;2023-04-22T06:43:05;14.60;;;11.73;;
6547;SDS011;3307;52.416;16.862;2023-04-22T06:45:31;12.10;;;10.87;;
6547;SDS011;3307;52.416;16.862;2023-04-22T06:47:56;15.10;;;11.13;;
6547;SDS011;3307;52.416;16.862;2023-04-22T06:50:22;13.30;;;11.70;;
6547;SDS011;3307;52.416;16.862;2023-04-22T06:52:47;12.70;;;11.50;;
6547;SDS011;3307;52.416;16.862;2023-04-22T06:55:13;18.53;;;12.43;;
6547;SDS011;3307;52.416;16.862;2023-04-22T06:57:38;16.90;;;12.00;;
6547;SDS011;3307;52.416;16.862;2023-04-22T07:00:04;13.57;;;12.17;;
6547;SDS011;3307;52.416;16.862;2023-04-22T07:02:32;15.85;;;10.88;;
6547;SDS011;3307;52.416;16.862;2023-04-22T07:04:58;13.83;;;11.90;;
6547;SDS011;3307;52.416;16.862;2023-04-22T07:07:24;15.33;;;11.77;;
6547;SDS011;3307;52.416;16.862;2023-04-22T07:09:49;12.23;;;10.90;;
6547;SDS011;3307;52.416;16.862;2023-04-22T07:12:15;14.50;;;11.57;;
6547;SDS011;3307;52.416;16.862;2023-04-22T07:14:43;14.43;;;11.40;;
6547;SDS011;3307;52.416;16.862;2023-04-22T07:17:09;14.63;;;11.48;;
6547;SDS011;3307;52.416;16.862;2023-04-22T07:19:36;14.30;;;12.52;;
6547;SDS011;3307;52.416;16.862;2023-04-22T07:22:01;17.87;;;12.47;;
6547;SDS011;3307;52.416;16.862;2023-04-22T07:24:27;12.73;;;10.50;;
6547;SDS011;3307;52.416;16.862;2023-04-22T07:26:53;17.77;;;12.70;;
6547;SDS011;3307;52.416;16.862;2023-04-22T07:29:18;13.67;;;11.63;;
6547;SDS011;3307;52.416;16.862;2023-04-22T07:31:44;20.47;;;13.27;;
6547;SDS011;3307;52.416;16.862;2023-04-22T07:34:09;15.43;;;12.40;;
6547;SDS011;3307;52.416;16.862;2023-04-22T07:36:35;21.37;;;12.40;;
6547;SDS011;3307;52.416;16.862;2023-04-22T07:39:01;14.63;;;11.77;;
6547;SDS011;3307;52.416;16.862;2023-04-22T07:41:26;13.33;;;12.00;;
6547;SDS011;3307;52.416;16.862;2023-04-22T07:43:52;15.40;;;12.67;;
6547;SDS011;3307;52.416;16.862;2023-04-22T07:46:18;15.67;;;12.47;;
6547;SDS011;3307;52.416;16.862;2023-04-22T07:48:43;16.00;;;12.27;;
6547;SDS011;3307;52.416;16.862;2023-04-22T07:51:09;14.47;;;11.23;;
6547;SDS011;3307;52.416;16.862;2023-04-22T07:53:34;13.10;;;11.80;;
6547;SDS011;3307;52.416;16.862;2023-04-22T07:56:01;13.10;;;11.70;;
6547;SDS011;3307;52.416;16.862;2023-04-22T07:58:26;13.05;;;11.82;;
6547;SDS011;3307;52.416;16.862;2023-04-22T08:00:52;14.00;;;12.47;;
6547;SDS011;3307;52.416;16.862;2023-04-22T08:03:18;12.88;;;11.57;;
6547;SDS011;3307;52.416;16.862;2023-04-22T08:05:44;14.43;;;11.30;;
6547;SDS011;3307;52.416;16.862;2023-04-22T08:08:09;14.60;;;12.27;;
6547;SDS011;3307;52.416;16.862;2023-04-22T08:10:35;12.67;;;11.37;;
6547;SDS011;3307;52.416;16.862;2023-04-22T08:13:00;13.50;;;10.93;;
6547;SDS011;3307;52.416;16.862;2023-04-22T08:15:26;14.70;;;11.20;;
6547;SDS011;3307;52.416;16.862;2023-04-22T08:17:51;12.33;;;11.03;;
6547;SDS011;3307;52.416;16.862;2023-04-22T08:20:17;16.90;;;11.73;;
6547;SDS011;3307;52.416;16.862;2023-04-22T08:22:43;12.63;;;10.10;;
6547;SDS011;3307;52.416;16.862;2023-04-22T08:25:09;14.57;;;10.65;;
6547;SDS011;3307;52.416;16.862;2023-04-22T08:27:35;12.43;;;11.05;;
6547;SDS011;3307;52.416;16.862;2023-04-22T08:30:01;11.30;;;10.10;;
6547;SDS011;3307;52.416;16.862;2023-04-22T08:32:26;17.43;;;10.97;;
6547;SDS011;3307;52.416;16.862;2023-04-22T08:34:52;14.03;;;10.40;;
6547;SDS011;3307;52.416;16.862;2023-04-22T08:37:17;11.20;;;10.00;;
6547;SDS011;3307;52.416;16.862;2023-04-22T08:39:43;13.03;;;8.80;;
6547;SDS011;3307;52.416;16.862;2023-04-22T08:42:09;14.90;;;8.67;;
6547;SDS011;3307;52.416;16.862;2023-04-22T08:44:34;11.13;;;9.47;;
6547;SDS011;3307;52.416;16.862;2023-04-22T08:47:00;11.30;;;9.03;;
6547;SDS011;3307;52.416;16.862;2023-04-22T08:49:27;9.70;;;8.73;;
6547;SDS011;3307;52.416;16.862;2023-04-22T08:51:54;9.33;;;8.40;;
6547;SDS011;3307;52.416;16.862;2023-04-22T08:54:21;12.10;;;8.47;;
6547;SDS011;3307;52.416;16.862;2023-04-22T08:56:47;9.63;;;8.67;;
6547;SDS011;3307;52.416;16.862;2023-04-22T08:59:14;8.67;;;6.90;;
6547;SDS011;3307;52.416;16.862;2023-04-22T09:01:40;11.80;;;7.77;;
6547;SDS011;3307;52.416;16.862;2023-04-22T09:04:06;6.00;;;5.20;;
6547;SDS011;3307;52.416;16.862;2023-04-22T09:06:36;5.00;;;4.60;;
6547;SDS011;3307;52.416;16.862;2023-04-22T09:09:02;7.50;;;6.80;;
6547;SDS011;3307;52.416;16.862;2023-04-22T09:11:28;8.00;;;7.20;;
6547;SDS011;3307;52.416;16.862;2023-04-22T09:13:56;8.03;;;7.23;;
6547;SDS011;3307;52.416;16.862;2023-04-22T09:16:22;8.37;;;7.27;;
6547;SDS011;3307;52.416;16.862;2023-04-22T09:18:48;8.23;;;7.40;;
6547;SDS011;3307;52.416;16.862;2023-04-22T09:21:14;7.97;;;7.07;;
6547;SDS011;3307;52.416;16.862;2023-04-22T09:23:47;7.77;;;6.77;;
6547;SDS011;3307;52.416;16.862;2023-04-22T09:26:14;8.33;;;7.40;;
6547;SDS011;3307;52.416;16.862;2023-04-22T09:28:49;7.93;;;6.67;;
6547;SDS011;3307;52.416;16.862;2023-04-22T09:31:15;8.20;;;7.40;;
6547;SDS011;3307;52.416;16.862;2023-04-22T09:33:41;7.97;;;7.17;;
6547;SDS011;3307;52.416;16.862;2023-04-22T09:36:09;7.80;;;6.50;;
6547;SDS011;3307;52.416;16.862;2023-04-22T09:38:35;9.40;;;6.70;;
6547;SDS011;3307;52.416;16.862;2023-04-22T09:41:01;10.33;;;7.97;;
6547;SDS011;3307;52.416;16.862;2023-04-22T09:43:33;8.60;;;7.40;;
6547;SDS011;3307;52.416;16.862;2023-04-22T09:45:58;9.57;;;7.10;;
6547;SDS011;3307;52.416;16.862;2023-04-22T09:48:25;7.30;;;6.60;;
6547;SDS011;3307;52.416;16.862;2023-04-22T09:50:50;8.10;;;7.30;;
6547;SDS011;3307;52.416;16.862;2023-04-22T09:53:17;8.53;;;7.70;;
6547;SDS011;3307;52.416;16.862;2023-04-22T09:55:47;9.23;;;8.30;;
6547;SDS011;3307;52.416;16.862;2023-04-22T09:58:15;8.90;;;8.00;;
6547;SDS011;3307;52.416;16.862;2023-04-22T10:00:49;8.82;;;8.00;;
6547;SDS011;3307;52.416;16.862;2023-04-22T10:03:16;9.60;;;8.40;;
6547;SDS011;3307;52.416;16.862;2023-04-22T10:05:42;7.73;;;7.10;;
6547;SDS011;3307;52.416;16.862;2023-04-22T10:08:09;7.80;;;7.20;;
6547;SDS011;3307;52.416;16.862;2023-04-22T10:10:35;7.50;;;6.53;;
6547;SDS011;3307;52.416;16.862;2023-04-22T10:13:01;7.03;;;6.33;;
6547;SDS011;3307;52.416;16.862;2023-04-22T10:15:31;7.97;;;7.17;;
6547;SDS011;3307;52.416;16.862;2023-04-22T10:17:59;7.53;;;6.93;;
6547;SDS011;3307;52.416;16.862;2023-04-22T10:20:26;6.60;;;5.90;;
6547;SDS011;3307;52.416;16.862;2023-04-22T10:22:53;7.43;;;6.63;;
6547;SDS011;3307;52.416;16.862;2023-04-22T10:25:22;7.60;;;6.87;;
6547;SDS011;3307;52.416;16.862;2023-04-22T10:27:53;7.43;;;6.70;;
6547;SDS011;3307;52.416;16.862;2023-04-22T10:30:26;8.60;;;6.63;;
6547;SDS011;3307;52.416;16.862;2023-04-22T10:32:52;7.97;;;6.47;;
6547;SDS011;3307;52.416;16.862;2023-04-22T10:35:19;8.10;;;7.00;;
6547;SDS011;3307;52.416;16.862;2023-04-22T10:37:51;6.90;;;6.28;;
6547;SDS011;3307;52.416;16.862;2023-04-22T10:40:17;7.83;;;6.97;;
6547;SDS011;3307;52.416;16.862;2023-04-22T10:42:47;7.43;;;6.60;;
6547;SDS011;3307;52.416;16.862;2023-04-22T10:45:14;7.78;;;6.80;;
6547;SDS011;3307;52.416;16.862;2023-04-22T10:47:40;6.30;;;5.70;;
6547;SDS011;3307;52.416;16.862;2023-04-22T10:50:09;7.53;;;6.83;;
6547;SDS011;3307;52.416;16.862;2023-04-22T10:52:35;6.60;;;5.87;;
6547;SDS011;3307;52.416;16.862;2023-04-22T10:55:01;6.50;;;5.90;;
6547;SDS011;3307;52.416;16.862;2023-04-22T10:57:28;7.88;;;7.18;;
6547;SDS011;3307;52.416;16.862;2023-04-22T11:00:00;7.40;;;6.80;;
6547;SDS011;3307;52.416;16.862;2023-04-22T11:02:25;7.70;;;6.47;;
6547;SDS011;3307;52.416;16.862;2023-04-22T11:04:51;8.33;;;7.40;;
6547;SDS011;3307;52.416;16.862;2023-04-22T11:07:43;7.20;;;6.60;;
6547;SDS011;3307;52.416;16.862;2023-04-22T11:10:08;8.70;;;6.77;;
6547;SDS011;3307;52.416;16.862;2023-04-22T11:15:19;6.90;;;6.20;;
6547;SDS011;3307;52.416;16.862;2023-04-22T11:17:47;6.80;;;6.20;;
6547;SDS011;3307;52.416;16.862;2023-04-22T11:20:15;6.78;;;5.35;;
6547;SDS011;3307;52.416;16.862;2023-04-22T11:22:51;8.27;;;6.00;;
6547;SDS011;3307;52.416;16.862;2023-04-22T11:25:18;6.60;;;5.93;;
6547;SDS011;3307;52.416;16.862;2023-04-22T11:27:44;7.07;;;6.40;;
6547;SDS011;3307;52.416;16.862;2023-04-22T11:32:49;6.80;;;6.10;;
6547;SDS011;3307;52.416;16.862;2023-04-22T11:35:35;7.87;;;6.23;;
6547;SDS011;3307;52.416;16.862;2023-04-22T11:38:05;7.80;;;5.97;;
6547;SDS011;3307;52.416;16.862;2023-04-22T11:40:41;6.68;;;6.07;;
6547;SDS011;3307;52.416;16.862;2023-04-22T11:43:08;10.35;;;6.82;;
6547;SDS011;3307;52.416;16.862;2023-04-22T11:45:34;7.37;;;6.67;;
6547;SDS011;3307;52.416;16.862;2023-04-22T11:48:02;7.60;;;6.03;;
6547;SDS011;3307;52.416;16.862;2023-04-22T11:50:31;11.07;;;6.87;;
6547;SDS011;3307;52.416;16.862;2023-04-22T11:53:02;10.00;;;6.70;;
6547;SDS011;3307;52.416;16.862;2023-04-22T11:55:32;8.20;;;7.50;;
6547;SDS011;3307;52.416;16.862;2023-04-22T11:58:09;11.77;;;7.30;;
6547;SDS011;3307;52.416;16.862;2023-04-22T12:03:29;7.73;;;7.03;;
6547;SDS011;3307;52.416;16.862;2023-04-22T12:05:58;11.10;;;7.73;;
6547;SDS011;3307;52.416;16.862;2023-04-22T12:11:09;6.43;;;5.77;;
6547;SDS011;3307;52.416;16.862;2023-04-22T12:18:32;8.23;;;7.37;;
6547;SDS011;3307;52.416;16.862;2023-04-22T12:20:59;8.18;;;7.38;;
6547;SDS011;3307;52.416;16.862;2023-04-22T12:23:26;8.70;;;7.80;;
6547;SDS011;3307;52.416;16.862;2023-04-22T12:25:52;8.00;;;7.20;;
6547;SDS011;3307;52.416;16.862;2023-04-22T12:28:17;7.60;;;6.60;;
6547;SDS011;3307;52.416;16.862;2023-04-22T12:30:43;7.43;;;6.70;;
6547;SDS011;3307;52.416;16.862;2023-04-22T12:33:09;6.90;;;6.30;;
6547;SDS011;3307;52.416;16.862;2023-04-22T12:35:34;8.03;;;6.40;;
6547;SDS011;3307;52.416;16.862;2023-04-22T12:38:00;7.20;;;6.60;;
6547;SDS011;3307;52.416;16.862;2023-04-22T12:40:26;7.03;;;6.43;;
6547;SDS011;3307;52.416;16.862;2023-04-22T12:42:51;8.80;;;7.40;;
6547;SDS011;3307;52.416;16.862;2023-04-22T12:45:17;8.77;;;6.80;;
6547;SDS011;3307;52.416;16.862;2023-04-22T12:47:43;7.50;;;6.80;;
6547;SDS011;3307;52.416;16.862;2023-04-22T12:50:09;8.07;;;7.13;;
6547;SDS011;3307;52.416;16.862;2023-04-22T12:52:35;8.63;;;7.47;;
6547;SDS011;3307;52.416;16.862;2023-04-22T12:55:00;12.47;;;7.70;;
6547;SDS011;3307;52.416;16.862;2023-04-22T12:57:26;8.37;;;7.50;;
6547;SDS011;3307;52.416;16.862;2023-04-22T12:59:51;9.83;;;7.60;;
6547;SDS011;3307;52.416;16.862;2023-04-22T13:02:17;7.13;;;6.53;;
6547;SDS011;3307;52.416;16.862;2023-04-22T13:04:42;7.80;;;7.00;;
6547;SDS011;3307;52.416;16.862;2023-04-22T13:07:08;10.47;;;6.80;;
6547;SDS011;3307;52.416;16.862;2023-04-22T13:09:33;7.53;;;6.60;;
6547;SDS011;3307;52.416;16.862;2023-04-22T13:11:59;8.87;;;6.97;;
6547;SDS011;3307;52.416;16.862;2023-04-22T13:14:24;7.13;;;6.53;;
6547;SDS011;3307;52.416;16.862;2023-04-22T13:16:50;8.10;;;7.30;;
6547;SDS011;3307;52.416;16.862;2023-04-22T13:19:16;8.47;;;7.63;;
6547;SDS011;3307;52.416;16.862;2023-04-22T13:21:41;8.10;;;7.20;;
6547;SDS011;3307;52.416;16.862;2023-04-22T13:24:07;7.77;;;6.97;;
6547;SDS011;3307;52.416;16.862;2023-04-22T13:26:33;8.20;;;7.53;;
6547;SDS011;3307;52.416;16.862;2023-04-22T13:29:00;8.03;;;7.30;;
6547;SDS011;3307;52.416;16.862;2023-04-22T13:31:25;8.03;;;6.80;;
6547;SDS011;3307;52.416;16.862;2023-04-22T13:33:51;9.10;;;7.57;;
6547;SDS011;3307;52.416;16.862;2023-04-22T13:36:16;7.60;;;6.90;;
6547;SDS011;3307;52.416;16.862;2023-04-22T13:38:42;7.83;;;7.03;;
6547;SDS011;3307;52.416;16.862;2023-04-22T13:41:07;12.23;;;7.07;;
6547;SDS011;3307;52.416;16.862;2023-04-22T13:43:32;6.43;;;5.93;;
6547;SDS011;3307;52.416;16.862;2023-04-22T13:45:58;8.30;;;7.60;;
6547;SDS011;3307;52.416;16.862;2023-04-22T13:48:23;7.77;;;7.07;;
6547;SDS011;3307;52.416;16.862;2023-04-22T13:50:49;8.80;;;6.63;;
6547;SDS011;3307;52.416;16.862;2023-04-22T13:53:15;7.20;;;6.53;;
6547;SDS011;3307;52.416;16.862;2023-04-22T13:55:40;7.03;;;6.43;;
6547;SDS011;3307;52.416;16.862;2023-04-22T13:58:07;9.13;;;6.33;;
6547;SDS011;3307;52.416;16.862;2023-04-22T14:00:32;7.20;;;6.53;;
6547;SDS011;3307;52.416;16.862;2023-04-22T14:02:58;6.35;;;5.85;;
6547;SDS011;3307;52.416;16.862;2023-04-22T14:05:25;8.33;;;5.93;;
6547;SDS011;3307;52.416;16.862;2023-04-22T14:07:51;7.10;;;6.40;;
6547;SDS011;3307;52.416;16.862;2023-04-22T14:10:17;7.50;;;6.80;;
6547;SDS011;3307;52.416;16.862;2023-04-22T14:12:44;6.90;;;6.30;;
6547;SDS011;3307;52.416;16.862;2023-04-22T14:15:11;7.13;;;6.50;;
6547;SDS011;3307;52.416;16.862;2023-04-22T14:17:37;7.30;;;6.57;;
6547;SDS011;3307;52.416;16.862;2023-04-22T14:20:03;7.93;;;7.23;;
6547;SDS011;3307;52.416;16.862;2023-04-22T14:22:29;8.20;;;7.47;;
6547;SDS011;3307;52.416;16.862;2023-04-22T14:24:55;7.00;;;6.30;;
6547;SDS011;3307;52.416;16.862;2023-04-22T14:27:20;6.77;;;6.17;;
6547;SDS011;3307;52.416;16.862;2023-04-22T14:29:46;7.03;;;6.53;;
6547;SDS011;3307;52.416;16.862;2023-04-22T14:32:11;7.70;;;7.00;;
6547;SDS011;3307;52.416;16.862;2023-04-22T14:34:37;7.40;;;6.40;;
6547;SDS011;3307;52.416;16.862;2023-04-22T14:37:03;7.90;;;7.10;;
6547;SDS011;3307;52.416;16.862;2023-04-22T14:39:29;7.93;;;7.23;;
6547;SDS011;3307;52.416;16.862;2023-04-22T14:41:54;6.90;;;6.40;;
6547;SDS011;3307;52.416;16.862;2023-04-22T14:44:21;7.90;;;7.20;;
6547;SDS011;3307;52.416;16.862;2023-04-22T14:46:47;6.77;;;6.17;;
6547;SDS011;3307;52.416;16.862;2023-04-22T14:49:12;7.13;;;6.60;;
6547;SDS011;3307;52.416;16.862;2023-04-22T14:51:38;7.23;;;6.53;;
6547;SDS011;3307;52.416;16.862;2023-04-22T14:54:03;8.93;;;8.03;;
6547;SDS011;3307;52.416;16.862;2023-04-22T14:56:29;7.83;;;7.13;;
6547;SDS011;3307;52.416;16.862;2023-04-22T14:58:55;6.63;;;6.13;;